Time;durP1;ratioP1;P1;durP2;ratioP2;P2;SDS_P1;SDS_P2;PMS_P1;PMS_P2;Temp;Humidity;BMP_temperature;BMP_pressure;BME280_temperature;BME280_humidity;BME280_pressure;Samples;Min_cycle;Max_cycle;Signal;HPM_P1;HPM_P2
2021/07/01 00:00:26;;;;;;;1.40;0.90;;;12.20;99.90;;;;;;5139919;27;20523;-42
2021/07/01 00:02:52;;;;;;;1.83;1.10;;;12.20;99.90;;;;;;5139183;27;20413;-43
2021/07/01 00:05:18;;;;;;;1.73;1.30;;;12.20;99.90;;;;;;5121127;27;20267;-43
2021/07/01 00:07:45;;;;;;;1.23;0.83;;;12.20;99.90;;;;;;5139414;27;20240;-43
2021/07/01 00:10:21;;;;;;;1.43;0.97;;;12.20;99.90;;;;;;5139171;27;20451;-43
2021/07/01 00:12:47;;;;;;;2.33;1.00;;;12.10;99.90;;;;;;5139140;27;20420;-42
2021/07/01 00:15:15;;;;;;;1.20;0.80;;;12.20;99.90;;;;;;5138620;27;20447;-43
2021/07/01 00:17:41;;;;;;;1.00;0.70;;;12.10;99.90;;;;;;5138828;27;20444;-43
2021/07/01 00:20:09;;;;;;;1.40;1.00;;;12.10;99.90;;;;;;5138534;27;20823;-42
2021/07/01 00:22:34;;;;;;;1.37;0.90;;;12.10;99.90;;;;;;5138342;27;20480;-43
2021/07/01 00:25:00;;;;;;;1.20;0.80;;;12.10;99.90;;;;;;5138658;27;20412;-43
2021/07/01 00:27:28;;;;;;;1.10;0.80;;;12.10;99.90;;;;;;5138268;27;20706;-43
2021/07/01 00:29:53;;;;;;;1.73;1.00;;;12.10;99.90;;;;;;5138437;27;20182;-43
2021/07/01 00:32:19;;;;;;;0.90;0.70;;;12.00;99.90;;;;;;5138307;27;20825;-44
2021/07/01 00:34:45;;;;;;;1.40;0.90;;;12.10;99.90;;;;;;5138339;27;20171;-44
2021/07/01 00:37:10;;;;;;;1.23;1.00;;;12.10;99.90;;;;;;5138640;27;20186;-43
2021/07/01 00:39:36;;;;;;;2.13;0.67;;;12.10;99.90;;;;;;5138245;27;20179;-42
2021/07/01 00:42:01;;;;;;;0.93;0.80;;;12.10;99.90;;;;;;5138772;27;20313;-41
2021/07/01 00:44:27;;;;;;;1.90;0.73;;;12.10;99.90;;;;;;5138235;27;20201;-43
2021/07/01 00:46:52;;;;;;;2.60;1.07;;;12.10;99.90;;;;;;5138342;27;20175;-44
2021/07/01 00:49:18;;;;;;;1.43;1.03;;;12.10;99.90;;;;;;5138284;27;20179;-43
2021/07/01 00:51:44;;;;;;;1.93;0.87;;;12.10;99.90;;;;;;5138603;27;20270;-43
2021/07/01 00:54:09;;;;;;;1.57;0.93;;;12.10;99.90;;;;;;5138011;27;20317;-43
2021/07/01 00:56:38;;;;;;;1.20;0.80;;;12.10;99.90;;;;;;5138128;27;20566;-44
2021/07/01 00:59:04;;;;;;;1.87;0.70;;;12.10;99.90;;;;;;5138267;27;20210;-43
2021/07/01 01:01:30;;;;;;;1.57;0.93;;;12.00;99.90;;;;;;5138049;28;20505;-43
2021/07/01 01:03:56;;;;;;;1.00;0.63;;;12.00;99.90;;;;;;5137569;28;20425;-43
2021/07/01 01:06:21;;;;;;;2.97;0.83;;;12.00;99.90;;;;;;5136816;28;20470;-42
2021/07/01 01:08:48;;;;;;;1.00;0.70;;;12.00;99.90;;;;;;5136598;28;20197;-43
2021/07/01 01:11:14;;;;;;;1.30;0.70;;;12.10;99.90;;;;;;5136541;28;20182;-42
2021/07/01 01:13:43;;;;;;;1.10;0.70;;;12.10;99.90;;;;;;5136883;28;20419;-43
2021/07/01 01:16:09;;;;;;;4.07;0.67;;;12.10;99.90;;;;;;5136738;28;20531;-43
2021/07/01 01:18:34;;;;;;;1.50;1.13;;;12.10;99.90;;;;;;5118298;28;20493;-43
2021/07/01 01:21:00;;;;;;;1.27;0.90;;;12.00;99.90;;;;;;5135991;28;20293;-44
2021/07/01 01:23:26;;;;;;;0.90;0.53;;;12.10;99.90;;;;;;5137799;27;20182;-43
2021/07/01 01:25:55;;;;;;;1.00;0.70;;;12.00;99.90;;;;;;5139000;27;20428;-43
2021/07/01 01:28:21;;;;;;;1.10;0.90;;;11.90;99.90;;;;;;5139218;27;20416;-42
2021/07/01 01:30:46;;;;;;;2.73;1.00;;;11.90;99.90;;;;;;5138821;27;20451;-40
2021/07/01 01:33:12;;;;;;;1.70;0.90;;;11.90;99.90;;;;;;5121039;27;20175;-43
2021/07/01 01:35:39;;;;;;;1.73;0.80;;;12.00;99.90;;;;;;5139017;27;20179;-43
2021/07/01 01:38:10;;;;;;;1.10;0.70;;;12.00;99.90;;;;;;5138986;27;20183;-42
2021/07/01 01:40:36;;;;;;;1.40;0.90;;;12.00;99.90;;;;;;5140804;27;20456;-41
2021/07/01 01:43:01;;;;;;;1.70;0.93;;;12.10;99.90;;;;;;5140801;27;20440;-43
2021/07/01 01:45:27;;;;;;;2.73;1.50;;;12.10;99.90;;;;;;5140478;27;20179;-43
2021/07/01 01:47:53;;;;;;;1.73;0.70;;;12.10;99.90;;;;;;5140644;27;20199;-43
2021/07/01 01:50:22;;;;;;;0.90;0.60;;;12.10;99.90;;;;;;5141053;27;20183;-43
2021/07/01 01:52:49;;;;;;;1.30;0.93;;;12.10;99.90;;;;;;5140561;27;20183;-43
2021/07/01 01:55:15;;;;;;;1.83;0.80;;;12.10;99.90;;;;;;5140525;27;20731;-43
2021/07/01 01:57:46;;;;;;;1.27;0.70;;;12.10;99.90;;;;;;5140221;27;20791;-43
2021/07/01 02:00:14;;;;;;;1.50;1.10;;;12.10;99.90;;;;;;5104917;27;20448;-43
2021/07/01 02:02:40;;;;;;;1.20;1.00;;;12.10;99.90;;;;;;5140490;27;20748;-43
2021/07/01 02:05:07;;;;;;;0.90;0.63;;;12.10;99.90;;;;;;5139890;27;20439;-43
2021/07/01 02:07:33;;;;;;;1.90;1.20;;;12.10;99.90;;;;;;5139664;27;20420;-43
2021/07/01 02:09:59;;;;;;;1.37;0.90;;;12.10;99.90;;;;;;5121733;27;20492;-43
2021/07/01 02:12:26;;;;;;;3.90;0.80;;;12.10;99.90;;;;;;5140125;27;20451;-43
2021/07/01 02:14:53;;;;;;;1.20;0.90;;;12.10;99.90;;;;;;5139591;27;20427;-42
2021/07/01 02:17:19;;;;;;;1.77;0.80;;;12.00;99.90;;;;;;5139854;27;20471;-43
2021/07/01 02:19:44;;;;;;;1.83;0.70;;;12.10;99.90;;;;;;5139866;27;20899;-42
2021/07/01 02:22:10;;;;;;;1.00;0.60;;;12.10;99.90;;;;;;5121289;27;20518;-43
2021/07/01 02:24:36;;;;;;;1.27;0.90;;;12.00;99.90;;;;;;5139422;27;20174;-42
2021/07/01 02:27:02;;;;;;;1.73;0.77;;;12.10;99.90;;;;;;5139368;27;20187;-42
2021/07/01 02:29:28;;;;;;;1.67;0.90;;;12.10;99.90;;;;;;5140285;27;20182;-43
2021/07/01 02:31:54;;;;;;;1.20;1.00;;;12.10;99.90;;;;;;5139427;27;20835;-43
2021/07/01 02:34:20;;;;;;;0.90;0.63;;;12.10;99.90;;;;;;5139035;27;20540;-43
2021/07/01 02:36:45;;;;;;;2.13;1.47;;;12.10;99.90;;;;;;5138780;27;20673;-40
2021/07/01 02:39:11;;;;;;;1.20;0.80;;;12.10;99.90;;;;;;5138969;27;20473;-42
2021/07/01 02:41:37;;;;;;;0.90;0.50;;;12.20;99.90;;;;;;5139335;27;20215;-43
2021/07/01 02:44:03;;;;;;;1.43;0.93;;;12.10;99.90;;;;;;5139468;27;20530;-43
2021/07/01 02:46:29;;;;;;;1.40;0.70;;;12.20;99.90;;;;;;5138753;27;20247;-43
2021/07/01 02:48:55;;;;;;;1.03;0.67;;;12.10;99.90;;;;;;5139116;27;20728;-43
2021/07/01 02:51:20;;;;;;;1.33;1.03;;;12.10;99.90;;;;;;5139026;27;20425;-43
2021/07/01 02:53:46;;;;;;;1.50;0.87;;;12.10;99.90;;;;;;5138979;27;20230;-42
2021/07/01 02:56:12;;;;;;;1.10;0.80;;;12.10;99.90;;;;;;5139899;27;20265;-42
2021/07/01 02:58:37;;;;;;;1.30;0.80;;;12.20;99.90;;;;;;5139427;27;20189;-42
2021/07/01 03:01:03;;;;;;;1.20;0.90;;;12.20;99.90;;;;;;5139618;27;20596;-42
2021/07/01 03:03:29;;;;;;;2.20;0.90;;;12.10;99.90;;;;;;5139295;27;20290;-40
2021/07/01 03:05:54;;;;;;;2.77;1.07;;;12.10;99.90;;;;;;5139309;27;20258;-43
2021/07/01 03:08:20;;;;;;;1.10;0.80;;;12.10;99.90;;;;;;5139206;27;20453;-43
2021/07/01 03:10:45;;;;;;;1.87;1.27;;;12.10;99.90;;;;;;5139142;27;20273;-43
2021/07/01 03:13:11;;;;;;;1.40;0.87;;;12.10;99.90;;;;;;5139314;27;20167;-43
2021/07/01 03:15:37;;;;;;;1.90;0.97;;;12.10;99.90;;;;;;5138896;27;20470;-43
2021/07/01 03:18:03;;;;;;;1.70;1.20;;;12.10;99.90;;;;;;5138667;27;20175;-43
2021/07/01 03:20:29;;;;;;;1.63;1.10;;;12.10;99.90;;;;;;5138351;27;20428;-42
2021/07/01 03:22:55;;;;;;;1.60;1.10;;;12.10;99.90;;;;;;5103781;27;20477;-43
2021/07/01 03:25:21;;;;;;;1.10;0.90;;;12.10;99.90;;;;;;5138743;27;20416;-43
2021/07/01 03:27:46;;;;;;;1.87;0.90;;;12.10;99.90;;;;;;5138789;27;20250;-43
2021/07/01 03:30:12;;;;;;;1.60;1.20;;;12.10;99.90;;;;;;5138925;27;20552;-43
2021/07/01 03:32:38;;;;;;;2.33;1.47;;;12.20;99.90;;;;;;5138145;27;20244;-43
2021/07/01 03:35:04;;;;;;;1.90;1.23;;;12.20;99.90;;;;;;5137569;27;20417;-42
2021/07/01 03:37:30;;;;;;;1.90;1.43;;;12.30;99.90;;;;;;5137773;27;20209;-43
2021/07/01 03:39:56;;;;;;;2.90;1.17;;;12.20;99.90;;;;;;5137352;27;20412;-43
2021/07/01 03:42:22;;;;;;;1.60;1.30;;;12.30;99.90;;;;;;5138033;27;20533;-43
2021/07/01 03:44:48;;;;;;;1.40;1.30;;;12.30;99.90;;;;;;5137528;27;20281;-43
2021/07/01 03:47:14;;;;;;;2.20;1.27;;;12.30;99.90;;;;;;5137736;27;20431;-42
2021/07/01 03:49:40;;;;;;;2.20;1.50;;;12.30;99.90;;;;;;5138298;27;20711;-42
2021/07/01 03:52:07;;;;;;;2.00;1.40;;;12.40;99.90;;;;;;5137836;27;20471;-42
2021/07/01 03:54:33;;;;;;;2.83;1.50;;;12.40;99.90;;;;;;5137750;27;20477;-43
2021/07/01 03:57:00;;;;;;;1.50;1.40;;;12.20;99.90;;;;;;5138008;27;20876;-43
2021/07/01 03:59:26;;;;;;;1.87;1.57;;;12.20;99.90;;;;;;5137876;27;20175;-43
2021/07/01 04:01:51;;;;;;;1.87;1.30;;;12.30;99.90;;;;;;5137398;27;20579;-43
2021/07/01 04:04:17;;;;;;;2.30;1.60;;;12.20;99.90;;;;;;5138034;27;20171;-42
2021/07/01 04:06:43;;;;;;;2.00;1.43;;;12.30;99.90;;;;;;5137716;27;20247;-42
2021/07/01 04:09:08;;;;;;;2.17;1.73;;;12.30;99.90;;;;;;5137603;27;20182;-42
2021/07/01 04:11:37;;;;;;;2.33;1.43;;;12.30;99.90;;;;;;5136971;27;20479;-43
2021/07/01 04:14:04;;;;;;;2.70;1.50;;;12.30;99.90;;;;;;5137085;27;20220;-42
2021/07/01 04:16:30;;;;;;;2.00;1.67;;;12.40;99.90;;;;;;5137383;27;20578;-43
2021/07/01 04:18:56;;;;;;;2.33;1.33;;;12.20;99.90;;;;;;5137662;27;20472;-43
2021/07/01 04:21:26;;;;;;;1.43;1.33;;;12.20;99.90;;;;;;5136977;27;20475;-42
2021/07/01 04:23:52;;;;;;;3.53;1.90;;;12.30;99.90;;;;;;5137223;27;20551;-43
2021/07/01 04:26:18;;;;;;;2.50;1.50;;;12.30;99.90;;;;;;5137142;27;20424;-43
2021/07/01 04:28:43;;;;;;;2.13;1.53;;;12.30;99.90;;;;;;5137083;27;20266;-43
2021/07/01 04:31:09;;;;;;;2.30;2.10;;;12.40;99.90;;;;;;5136053;27;20202;-43
2021/07/01 04:33:35;;;;;;;1.77;1.30;;;12.40;99.90;;;;;;5102254;27;20191;-43
2021/07/01 04:36:01;;;;;;;2.17;1.70;;;12.40;99.90;;;;;;5137038;27;20432;-41
2021/07/01 04:38:26;;;;;;;2.27;1.73;;;12.50;99.90;;;;;;5118430;27;20167;-43
2021/07/01 04:40:54;;;;;;;2.83;1.90;;;12.40;99.90;;;;;;5136229;27;20288;-43
2021/07/01 04:43:20;;;;;;;2.50;1.87;;;12.40;99.90;;;;;;5136830;27;20694;-43
2021/07/01 04:45:45;;;;;;;1.80;1.70;;;12.40;99.90;;;;;;5136360;27;20425;-43
2021/07/01 04:48:11;;;;;;;2.30;2.00;;;12.50;99.90;;;;;;5137203;27;20175;-43
2021/07/01 04:50:36;;;;;;;4.30;1.77;;;12.40;99.90;;;;;;5136427;27;20222;-42
2021/07/01 04:53:02;;;;;;;2.50;1.90;;;12.50;99.90;;;;;;5136828;27;20255;-43
2021/07/01 04:55:28;;;;;;;1.90;1.70;;;12.50;99.90;;;;;;5135137;27;20568;-41
2021/07/01 04:57:54;;;;;;;2.17;1.97;;;12.60;99.90;;;;;;5133472;27;20477;-42
2021/07/01 05:00:21;;;;;;;4.60;1.90;;;12.70;99.90;;;;;;5115022;28;20210;-43
2021/07/01 05:02:47;;;;;;;2.90;2.10;;;12.70;99.90;;;;;;5133938;28;20246;-42
2021/07/01 05:05:12;;;;;;;1.70;1.37;;;12.80;99.90;;;;;;5115538;28;20444;-41
2021/07/01 05:07:45;;;;;;;7.13;1.70;;;12.80;99.90;;;;;;5134923;28;20307;-42
2021/07/01 05:10:12;;;;;;;2.73;1.57;;;12.70;99.90;;;;;;5117499;28;20200;-43
2021/07/01 05:12:37;;;;;;;1.80;1.40;;;12.80;99.90;;;;;;5117742;28;20758;-43
2021/07/01 05:15:04;;;;;;;2.20;1.63;;;12.80;99.90;;;;;;5135770;28;20485;-43
2021/07/01 05:17:30;;;;;;;2.43;2.03;;;12.80;99.90;;;;;;5135202;28;20175;-43
2021/07/01 05:19:55;;;;;;;2.20;1.70;;;13.00;99.90;;;;;;5136278;28;20674;-43
2021/07/01 05:22:21;;;;;;;2.00;1.80;;;12.90;99.90;;;;;;5132263;28;20209;-45
2021/07/01 05:24:48;;;;;;;3.10;1.40;;;13.00;99.90;;;;;;5132090;28;20198;-43
2021/07/01 05:27:13;;;;;;;4.33;1.70;;;13.00;99.90;;;;;;5134515;28;20297;-43
2021/07/01 05:29:39;;;;;;;2.00;1.80;;;13.10;99.90;;;;;;5134863;28;20471;-43
2021/07/01 05:32:05;;;;;;;2.60;1.97;;;13.20;99.90;;;;;;5131421;28;20557;-44
2021/07/01 05:34:31;;;;;;;2.03;1.50;;;13.20;99.90;;;;;;5114205;28;20554;-45
2021/07/01 05:36:59;;;;;;;2.40;1.70;;;13.30;99.90;;;;;;5135769;28;20432;-45
2021/07/01 05:39:25;;;;;;;2.40;1.80;;;13.30;99.90;;;;;;5135534;28;21056;-45
2021/07/01 05:41:51;;;;;;;2.17;1.97;;;13.30;99.90;;;;;;5135165;28;20471;-44
2021/07/01 05:44:16;;;;;;;4.10;1.77;;;13.20;99.90;;;;;;5133379;28;20412;-44
2021/07/01 05:46:42;;;;;;;3.43;1.60;;;13.30;99.90;;;;;;5132453;28;20203;-42
2021/07/01 05:49:08;;;;;;;1.67;1.20;;;13.20;99.90;;;;;;5133934;28;20428;-42
2021/07/01 05:51:35;;;;;;;1.47;1.30;;;13.10;99.90;;;;;;5133793;28;20432;-52
2021/07/01 05:54:10;;;;;;;2.33;1.80;;;13.20;99.90;;;;;;5116663;28;20239;-44
2021/07/01 05:56:39;;;;;;;5.23;1.57;;;13.30;99.90;;;;;;5135780;28;20530;-44
2021/07/01 05:59:06;;;;;;;3.17;1.70;;;13.20;99.90;;;;;;5132692;28;20431;-44
2021/07/01 06:01:31;;;;;;;2.30;1.47;;;13.10;99.90;;;;;;5131880;28;20578;-44
2021/07/01 06:03:57;;;;;;;3.97;1.50;;;13.20;99.90;;;;;;5131369;28;20933;-44
2021/07/01 06:06:23;;;;;;;2.03;1.70;;;13.20;99.90;;;;;;5133175;28;20476;-44
2021/07/01 06:08:49;;;;;;;2.20;1.90;;;13.20;99.90;;;;;;5119148;28;20262;-45
2021/07/01 06:11:16;;;;;;;3.60;1.77;;;13.10;99.90;;;;;;5118965;27;20211;-44
2021/07/01 06:13:43;;;;;;;2.80;2.23;;;13.00;99.90;;;;;;5118681;28;20417;-44
2021/07/01 06:16:13;;;;;;;2.63;1.97;;;13.10;99.90;;;;;;5118651;28;20684;-44
2021/07/01 06:18:40;;;;;;;2.53;1.87;;;13.00;99.90;;;;;;5118986;28;20470;-44
2021/07/01 06:21:06;;;;;;;2.83;1.90;;;13.10;99.90;;;;;;5137318;27;20480;-44
2021/07/01 06:23:32;;;;;;;2.50;2.20;;;13.10;99.90;;;;;;5103832;27;20424;-44
2021/07/01 06:25:59;;;;;;;2.33;1.80;;;13.20;99.90;;;;;;5137833;27;20428;-45
2021/07/01 06:28:26;;;;;;;4.40;2.50;;;13.30;99.90;;;;;;5136553;27;20247;-44
2021/07/01 06:30:52;;;;;;;3.03;1.97;;;13.40;99.90;;;;;;5129120;27;20437;-44
2021/07/01 06:33:19;;;;;;;6.03;2.20;;;13.50;99.90;;;;;;5116590;28;20466;-44
2021/07/01 06:35:50;;;;;;;5.23;2.60;;;13.60;99.90;;;;;;5129654;27;20585;-44
2021/07/01 06:38:18;;;;;;;3.10;1.97;;;13.80;99.90;;;;;;5117734;27;20412;-42
2021/07/01 06:40:47;;;;;;;3.07;2.50;;;13.80;99.90;;;;;;5136505;27;20428;-41
2021/07/01 06:43:13;;;;;;;3.60;3.23;;;13.70;99.90;;;;;;5116644;27;20433;-42
2021/07/01 06:45:38;;;;;;;2.47;2.27;;;13.80;99.90;;;;;;5117054;28;20524;-42
2021/07/01 06:48:04;;;;;;;3.67;3.17;;;13.70;99.90;;;;;;5099298;28;20500;-42
2021/07/01 06:50:30;;;;;;;2.40;2.20;;;13.80;99.90;;;;;;5098785;28;20188;-44
2021/07/01 06:52:57;;;;;;;2.37;2.13;;;13.80;99.90;;;;;;5115654;28;20417;-43
2021/07/01 06:55:23;;;;;;;3.40;2.60;;;13.80;99.90;;;;;;5098652;28;20421;-43
2021/07/01 06:57:50;;;;;;;3.30;2.50;;;13.90;99.90;;;;;;5117554;28;20416;-43
2021/07/01 07:00:20;;;;;;;2.80;2.50;;;13.90;99.90;;;;;;5119587;27;20823;-44
2021/07/01 07:02:46;;;;;;;3.00;2.53;;;14.10;99.90;;;;;;5137081;27;20464;-43
2021/07/01 07:05:14;;;;;;;2.80;2.50;;;14.30;99.90;;;;;;5136470;27;20420;-44
2021/07/01 07:07:41;;;;;;;4.33;2.27;;;14.20;99.90;;;;;;5118004;27;21039;-43
2021/07/01 07:10:07;;;;;;;4.13;2.67;;;14.30;99.90;;;;;;5119892;27;20434;-43
2021/07/01 07:12:46;;;;;;;5.10;2.37;;;14.30;99.90;;;;;;5115838;28;20746;-43
2021/07/01 07:15:14;;;;;;;2.67;2.37;;;14.60;99.90;;;;;;5116079;28;20524;-44
2021/07/01 07:17:42;;;;;;;3.57;2.97;;;15.00;99.90;;;;;;5097719;28;20414;-43
2021/07/01 07:20:08;;;;;;;2.50;2.27;;;15.20;99.90;;;;;;5115771;28;20433;-43
2021/07/01 07:22:37;;;;;;;3.73;2.40;;;15.40;99.90;;;;;;5116034;28;20464;-43
2021/07/01 07:25:06;;;;;;;3.00;2.70;;;15.60;99.90;;;;;;5098248;28;20711;-43
2021/07/01 07:27:32;;;;;;;3.60;2.67;;;15.90;99.90;;;;;;5116364;28;20687;-42
2021/07/01 07:29:59;;;;;;;2.80;2.50;;;15.90;99.90;;;;;;5114376;28;20414;-43
2021/07/01 07:32:27;;;;;;;2.60;2.37;;;16.10;99.90;;;;;;5115759;28;20425;-42
2021/07/01 07:34:53;;;;;;;3.03;2.60;;;16.30;99.90;;;;;;5113631;28;20523;-42
2021/07/01 07:37:19;;;;;;;5.60;2.50;;;16.50;99.90;;;;;;5111319;28;20405;-43
2021/07/01 07:39:45;;;;;;;2.70;2.50;;;16.50;99.90;;;;;;5110159;28;20421;-42
2021/07/01 07:42:12;;;;;;;7.17;2.63;;;16.40;99.90;;;;;;5110615;28;20227;-42
2021/07/01 07:44:39;;;;;;;2.90;2.53;;;16.80;99.90;;;;;;5110947;28;20462;-42
2021/07/01 07:47:06;;;;;;;3.40;2.70;;;16.80;99.90;;;;;;5110953;28;20757;-42
2021/07/01 07:49:31;;;;;;;3.10;2.80;;;16.90;99.70;;;;;;5113365;27;20486;-43
2021/07/01 07:52:03;;;;;;;5.17;2.80;;;16.70;99.30;;;;;;5114094;28;20433;-43
2021/07/01 07:54:33;;;;;;;2.80;2.60;;;16.50;99.60;;;;;;5116121;28;20461;-45
2021/07/01 07:57:00;;;;;;;3.60;3.30;;;16.40;99.10;;;;;;5116745;28;20715;-45
2021/07/01 07:59:29;;;;;;;2.97;2.53;;;16.30;99.90;;;;;;5114812;28;20445;-45
2021/07/01 08:02:00;;;;;;;5.33;3.20;;;16.30;99.90;;;;;;5115507;28;20461;-44
2021/07/01 08:04:27;;;;;;;3.10;2.80;;;16.20;99.90;;;;;;5080389;28;20708;-45
2021/07/01 08:06:54;;;;;;;3.90;3.60;;;16.30;99.80;;;;;;5114126;28;20567;-44
2021/07/01 08:09:23;;;;;;;2.93;2.73;;;15.90;99.90;;;;;;5113649;28;20428;-42
2021/07/01 08:11:50;;;;;;;3.30;3.00;;;15.80;99.90;;;;;;5097275;28;20444;-42
2021/07/01 08:14:16;;;;;;;5.40;3.30;;;15.80;99.90;;;;;;5098097;28;20421;-43
2021/07/01 08:16:45;;;;;;;3.83;2.90;;;15.90;99.90;;;;;;5096714;28;20435;-42
2021/07/01 08:19:11;;;;;;;5.63;3.73;;;15.80;99.90;;;;;;5096541;28;20194;-42
2021/07/01 08:21:37;;;;;;;2.97;2.67;;;15.90;99.90;;;;;;5114768;28;20465;-42
2021/07/01 08:24:03;;;;;;;3.77;3.47;;;16.00;99.90;;;;;;5113142;28;20669;-43
2021/07/01 08:26:28;;;;;;;3.97;3.60;;;15.80;99.90;;;;;;5112780;28;20195;-46
2021/07/01 08:28:54;;;;;;;3.83;3.53;;;15.80;99.90;;;;;;5113935;28;20424;-42
2021/07/01 08:31:20;;;;;;;4.53;3.27;;;15.90;99.90;;;;;;5095585;28;20195;-43
2021/07/01 08:33:48;;;;;;;4.37;3.27;;;16.00;99.90;;;;;;5115090;28;20421;-42
2021/07/01 08:36:21;;;;;;;5.37;3.90;;;16.00;99.90;;;;;;5114787;28;20439;-42
2021/07/01 08:38:56;;;;;;;4.70;4.30;;;15.80;99.90;;;;;;5114134;28;20424;-42
2021/07/01 08:41:25;;;;;;;6.50;4.97;;;15.90;99.90;;;;;;5115525;28;20477;-42
2021/07/01 08:44:02;;;;;;;4.20;3.80;;;15.90;99.90;;;;;;5116200;28;20413;-43
2021/07/01 08:46:50;;;;;;;3.70;3.40;;;15.60;99.90;;;;;;5115729;28;20417;-42
2021/07/01 08:49:28;;;;;;;4.23;3.83;;;15.60;99.90;;;;;;5097489;28;20441;-42
2021/07/01 08:51:56;;;;;;;4.37;3.97;;;15.50;99.90;;;;;;5096427;28;20782;-42
2021/07/01 08:54:32;;;;;;;5.50;4.13;;;15.20;99.90;;;;;;5114046;28;20472;-42
2021/07/01 08:56:58;;;;;;;3.60;3.30;;;15.20;99.90;;;;;;5114152;28;20842;-42
2021/07/01 08:59:26;;;;;;;5.03;4.60;;;15.30;99.90;;;;;;5113723;28;20406;-42
2021/07/01 09:01:58;;;;;;;6.63;4.23;;;15.30;99.90;;;;;;5110787;28;20468;-42
2021/07/01 09:04:26;;;;;;;4.40;4.00;;;15.50;99.90;;;;;;5111371;28;20405;-42
2021/07/01 09:07:00;;;;;;;4.80;3.97;;;15.60;99.90;;;;;;5093231;28;20686;-42
2021/07/01 09:09:34;;;;;;;4.20;3.90;;;15.50;99.90;;;;;;5111559;28;20585;-43
2021/07/01 09:12:02;;;;;;;5.00;4.13;;;15.40;99.90;;;;;;5111266;28;20440;-43
2021/07/01 09:14:29;;;;;;;5.40;4.90;;;15.50;99.90;;;;;;5112272;28;20410;-42
2021/07/01 09:16:55;;;;;;;4.10;3.70;;;15.50;99.90;;;;;;5112380;28;20494;-42
2021/07/01 09:19:23;;;;;;;5.30;4.80;;;15.50;99.90;;;;;;5111689;28;20516;-42
2021/07/01 09:21:50;;;;;;;4.83;4.43;;;15.40;99.90;;;;;;5093436;28;20724;-41
2021/07/01 09:24:17;;;;;;;4.80;4.40;;;15.40;99.90;;;;;;5112521;28;20401;-42
2021/07/01 09:26:47;;;;;;;4.67;4.27;;;15.30;99.90;;;;;;5094266;28;20524;-43
2021/07/01 09:29:13;;;;;;;5.10;4.53;;;15.50;99.90;;;;;;5113527;28;20413;-43
2021/07/01 09:31:40;;;;;;;3.73;3.43;;;15.60;99.90;;;;;;5096213;28;20733;-43
2021/07/01 09:34:08;;;;;;;3.90;3.50;;;15.80;99.90;;;;;;5096063;28;20269;-43
2021/07/01 09:36:36;;;;;;;4.27;3.83;;;15.70;99.90;;;;;;5115061;28;20535;-43
2021/07/01 09:39:03;;;;;;;4.03;3.63;;;15.70;99.90;;;;;;5114294;28;20425;-43
2021/07/01 09:41:28;;;;;;;3.80;3.50;;;15.80;99.90;;;;;;5114342;28;20469;-43
2021/07/01 09:43:55;;;;;;;5.33;3.70;;;15.80;99.90;;;;;;5124304;27;20767;-43
2021/07/01 09:46:23;;;;;;;4.00;3.67;;;16.00;99.90;;;;;;5120007;27;20274;-43
2021/07/01 09:48:51;;;;;;;3.27;2.97;;;15.80;99.90;;;;;;5139874;27;20412;-43
2021/07/01 09:51:17;;;;;;;4.27;3.90;;;15.80;99.90;;;;;;5121232;27;20821;-43
2021/07/01 09:53:48;;;;;;;3.30;2.70;;;15.90;99.90;;;;;;5137579;27;20586;-43
2021/07/01 09:56:15;;;;;;;3.70;3.07;;;15.60;99.90;;;;;;5137398;27;20421;-43
2021/07/01 09:58:48;;;;;;;3.23;2.93;;;15.70;99.90;;;;;;5118091;27;20427;-43
2021/07/01 10:01:28;;;;;;;4.30;3.90;;;15.80;99.90;;;;;;5137852;27;20464;-43
2021/07/01 10:03:56;;;;;;;5.73;4.10;;;15.90;99.90;;;;;;5118032;27;20409;-43
2021/07/01 10:06:22;;;;;;;3.90;3.20;;;16.00;99.90;;;;;;5118524;27;20814;-43
2021/07/01 10:08:48;;;;;;;4.20;3.00;;;16.10;99.90;;;;;;5119733;27;20437;-45
2021/07/01 10:11:14;;;;;;;3.57;2.77;;;16.10;99.90;;;;;;5080858;28;20432;-43
2021/07/01 10:13:40;;;;;;;5.10;3.10;;;16.10;99.90;;;;;;5115714;28;20705;-42
2021/07/01 10:16:06;;;;;;;3.07;2.70;;;15.80;99.90;;;;;;5096100;28;20521;-45
2021/07/01 10:18:42;;;;;;;2.97;2.67;;;16.10;99.90;;;;;;5095982;28;20187;-45
2021/07/01 10:21:14;;;;;;;3.17;2.60;;;16.30;99.90;;;;;;5114131;28;20207;-45
2021/07/01 10:23:40;;;;;;;2.90;2.00;;;16.20;99.40;;;;;;5115483;28;20991;-45
2021/07/01 10:26:10;;;;;;;3.23;2.93;;;16.30;99.30;;;;;;5118763;27;20443;-45
2021/07/01 10:28:37;;;;;;;2.40;2.20;;;16.40;99.50;;;;;;5135076;27;20220;-43
2021/07/01 10:31:08;;;;;;;2.73;2.23;;;16.80;99.40;;;;;;5135647;27;20425;-45
2021/07/01 10:33:39;;;;;;;2.47;2.27;;;16.90;98.10;;;;;;5135698;27;20664;-45
2021/07/01 10:36:06;;;;;;;2.70;2.00;;;16.90;98.10;;;;;;5135856;27;20432;-45
2021/07/01 10:38:49;;;;;;;2.60;2.40;;;16.80;97.80;;;;;;5117824;27;20862;-45
2021/07/01 10:41:29;;;;;;;2.40;2.20;;;16.80;98.70;;;;;;5117626;28;20809;-45
2021/07/01 10:43:56;;;;;;;2.57;2.00;;;16.80;98.30;;;;;;5117854;28;20416;-45
2021/07/01 10:46:45;;;;;;;2.00;1.80;;;16.70;98.00;;;;;;5126604;27;20535;-43
2021/07/01 10:49:12;;;;;;;2.37;2.00;;;16.30;98.80;;;;;;5135193;27;20405;-43
2021/07/01 10:51:53;;;;;;;2.43;2.10;;;16.10;99.20;;;;;;5117672;27;20521;-43
2021/07/01 10:54:19;;;;;;;2.50;2.10;;;16.00;99.00;;;;;;5135201;27;20453;-42
2021/07/01 10:56:45;;;;;;;2.07;1.87;;;15.80;99.10;;;;;;5134816;27;20840;-42
2021/07/01 10:59:12;;;;;;;1.90;1.70;;;15.70;99.40;;;;;;5137117;27;20168;-43
2021/07/01 11:01:41;;;;;;;2.13;1.40;;;15.90;99.80;;;;;;5136658;27;20472;-42
2021/07/01 11:04:09;;;;;;;3.10;2.03;;;15.80;99.60;;;;;;5117788;27;20421;-43
2021/07/01 11:06:36;;;;;;;1.50;1.37;;;15.70;99.50;;;;;;5115776;28;20698;-43
2021/07/01 11:09:04;;;;;;;2.63;1.67;;;15.50;99.90;;;;;;5113425;28;20402;-43
2021/07/01 11:11:32;;;;;;;1.90;1.70;;;15.50;99.80;;;;;;5114352;28;20440;-43
2021/07/01 11:13:59;;;;;;;2.40;1.50;;;15.30;99.90;;;;;;5113080;28;20843;-48
2021/07/01 11:16:51;;;;;;;1.50;1.40;;;15.00;99.90;;;;;;5117242;27;20513;-43
2021/07/01 11:19:21;;;;;;;2.63;1.97;;;15.00;99.90;;;;;;5111143;27;20580;-43
2021/07/01 11:21:47;;;;;;;2.60;2.23;;;14.90;99.90;;;;;;5116575;27;20896;-43
2021/07/01 11:24:24;;;;;;;2.40;2.20;;;15.00;99.90;;;;;;5134773;27;20408;-42
2021/07/01 11:26:57;;;;;;;2.40;2.20;;;15.10;99.90;;;;;;5134395;27;20428;-41
2021/07/01 11:29:38;;;;;;;3.17;2.87;;;15.00;99.90;;;;;;5135260;27;20420;-44
2021/07/01 11:32:21;;;;;;;3.10;2.80;;;14.90;99.90;;;;;;5134944;27;20951;-43
2021/07/01 11:34:48;;;;;;;3.00;2.63;;;14.80;99.90;;;;;;5137232;27;20543;-43
2021/07/01 11:37:15;;;;;;;2.93;2.63;;;14.60;99.90;;;;;;5137114;27;20409;-44
2021/07/01 11:39:41;;;;;;;2.87;2.60;;;14.40;99.90;;;;;;5137289;27;20476;-44
2021/07/01 11:42:07;;;;;;;3.53;2.50;;;14.40;99.90;;;;;;5137187;27;20555;-45
2021/07/01 11:44:34;;;;;;;3.50;2.80;;;14.60;99.90;;;;;;5135170;27;20824;-44
2021/07/01 11:47:03;;;;;;;3.20;2.50;;;14.70;99.90;;;;;;5135656;27;20220;-43
2021/07/01 11:49:30;;;;;;;2.53;2.33;;;14.90;99.90;;;;;;5135903;27;20401;-41
2021/07/01 11:51:57;;;;;;;3.27;2.97;;;15.10;99.90;;;;;;5135192;27;20507;-43
2021/07/01 11:54:23;;;;;;;2.87;2.67;;;15.50;99.90;;;;;;5115242;27;20893;-44
2021/07/01 11:57:09;;;;;;;3.87;2.70;;;16.10;99.90;;;;;;5113819;27;20429;-44
2021/07/01 11:59:35;;;;;;;3.27;1.87;;;16.20;99.90;;;;;;5132941;27;20181;-43
2021/07/01 12:02:02;;;;;;;4.07;2.20;;;16.40;99.90;;;;;;5132430;27;20468;-43
2021/07/01 12:04:36;;;;;;;3.17;2.87;;;16.20;99.90;;;;;;5132002;27;20163;-44
2021/07/01 12:07:26;;;;;;;2.93;2.27;;;16.10;99.90;;;;;;5111228;27;20425;-44
2021/07/01 12:09:54;;;;;;;2.90;2.60;;;15.70;99.90;;;;;;5110856;27;20440;-44
2021/07/01 12:12:22;;;;;;;4.30;2.83;;;15.70;99.90;;;;;;5129691;27;20404;-43
2021/07/01 12:14:48;;;;;;;3.90;2.80;;;15.40;99.90;;;;;;5129532;27;20473;-44
2021/07/01 12:17:49;;;;;;;3.73;3.40;;;15.40;99.90;;;;;;5130654;27;20401;-36
2021/07/01 12:20:32;;;;;;;4.23;3.30;;;15.60;99.90;;;;;;5132512;27;20182;-42
2021/07/01 12:23:13;;;;;;;3.93;3.53;;;15.50;99.90;;;;;;5134374;27;20525;-37
2021/07/01 12:25:40;;;;;;;6.17;3.40;;;15.90;99.90;;;;;;5126272;27;20428;-37
2021/07/01 12:28:08;;;;;;;3.37;3.07;;;16.60;99.90;;;;;;5112925;28;20740;-36
2021/07/01 12:30:51;;;;;;;3.20;2.70;;;17.30;99.90;;;;;;5112976;28;20780;-37
2021/07/01 12:33:35;;;;;;;2.67;2.47;;;18.40;98.10;;;;;;5113905;28;20787;-36
2021/07/01 12:36:10;;;;;;;7.10;2.63;;;19.50;96.50;;;;;;5113996;28;20413;-37
2021/07/01 12:38:38;;;;;;;3.50;2.33;;;20.00;94.20;;;;;;5114344;28;20512;-37
2021/07/01 12:41:08;;;;;;;3.23;2.93;;;20.20;92.90;;;;;;5115111;28;20481;-36
2021/07/01 12:43:52;;;;;;;2.43;2.23;;;20.10;92.10;;;;;;5116812;28;20409;-37
2021/07/01 12:46:39;;;;;;;2.50;2.30;;;20.00;92.80;;;;;;5114778;28;20424;-37
2021/07/01 12:49:05;;;;;;;3.87;3.33;;;20.00;92.30;;;;;;5112440;28;20437;-37
2021/07/01 12:51:42;;;;;;;2.80;2.60;;;19.70;92.10;;;;;;5113525;28;20752;-37